createdAt,value
2018-08-20T00:02:44.228Z,7.80
2018-08-20T00:07:48.092Z,7.10
2018-08-20T00:12:51.531Z,7.50
2018-08-20T00:17:54.866Z,7.63
2018-08-20T00:22:59.213Z,7.42
2018-08-20T00:28:03.582Z,7.83
2018-08-20T00:33:06.893Z,7.28
2018-08-20T00:38:11.005Z,10.43
2018-08-20T00:43:14.550Z,7.40
2018-08-20T00:48:17.931Z,7.30
2018-08-20T00:53:21.377Z,7.23
2018-08-20T00:58:24.855Z,7.50
2018-08-20T01:03:28.196Z,7.07
2018-08-20T01:08:31.502Z,8.23
2018-08-20T01:13:34.873Z,6.70
2018-08-20T01:18:38.171Z,7.03
2018-08-20T01:23:41.857Z,6.92
2018-08-20T01:28:45.291Z,6.90
2018-08-20T01:33:48.640Z,6.55
2018-08-20T01:38:51.987Z,9.30
2018-08-20T01:43:55.311Z,7.10
2018-08-20T01:48:58.616Z,6.90
2018-08-20T01:54:02.620Z,6.47
2018-08-20T01:59:05.979Z,6.92
2018-08-20T02:04:09.419Z,7.12
2018-08-20T02:09:13.651Z,6.50
2018-08-20T02:14:17.145Z,6.80
2018-08-20T02:19:20.443Z,7.62
2018-08-20T02:24:23.791Z,6.30
2018-08-20T02:29:31.289Z,6.80
2018-08-20T02:34:34.720Z,7.20
2018-08-20T02:39:39.092Z,7.30
2018-08-20T02:44:42.672Z,7.45
2018-08-20T02:49:45.979Z,7.67
2018-08-20T02:54:49.596Z,8.05
2018-08-20T02:59:53.111Z,8.88
2018-08-20T03:04:56.514Z,8.33
2018-08-20T03:10:00.075Z,8.30
2018-08-20T03:15:03.531Z,7.87
2018-08-20T03:20:07.236Z,8.70
2018-08-20T03:25:10.558Z,8.33
2018-08-20T03:30:13.968Z,8.40
2018-08-20T03:35:17.288Z,8.30
2018-08-20T03:40:20.595Z,8.50
2018-08-20T03:45:23.908Z,8.27
2018-08-20T03:50:27.295Z,8.45
2018-08-20T03:55:30.635Z,9.27
2018-08-20T04:00:34.066Z,8.60
2018-08-20T04:05:37.460Z,8.93
2018-08-20T04:10:40.758Z,9.70
2018-08-20T04:15:44.189Z,8.88
2018-08-20T04:20:58.547Z,10.27
2018-08-20T04:26:02.087Z,10.55
2018-08-20T04:31:05.400Z,9.50
2018-08-20T04:36:08.817Z,9.23
2018-08-20T04:41:12.411Z,9.00
2018-08-20T04:46:15.760Z,9.13
2018-08-20T04:51:19.367Z,8.35
2018-08-20T04:56:22.840Z,9.00
2018-08-20T05:01:26.293Z,8.15
2018-08-20T05:11:58.152Z,9.38
2018-08-20T05:17:04.781Z,8.20
2018-08-20T05:22:08.079Z,10.37
2018-08-20T05:27:11.411Z,8.18
2018-08-20T05:32:14.692Z,8.18
2018-08-20T05:37:18.059Z,9.68
2018-08-20T05:42:21.441Z,8.95
2018-08-20T05:47:24.789Z,8.20
2018-08-20T05:52:28.269Z,8.58
2018-08-20T05:57:31.694Z,9.73
2018-08-20T06:02:34.996Z,9.38
2018-08-20T06:07:38.245Z,7.60
2018-08-20T06:12:46.905Z,7.22
2018-08-20T06:17:51.050Z,7.75
2018-08-20T06:22:54.469Z,8.10
2018-08-20T06:27:57.819Z,7.58
2018-08-20T06:33:01.230Z,7.45
2018-08-20T06:38:04.605Z,7.08
2018-08-20T06:43:07.997Z,6.70
2018-08-20T06:48:11.783Z,7.90
2018-08-20T06:53:15.186Z,7.23
2018-08-20T06:58:18.541Z,7.75
2018-08-20T07:03:21.845Z,7.50
2018-08-20T07:08:25.654Z,7.30
2018-08-20T07:13:37.999Z,8.48
2018-08-20T07:18:41.552Z,6.78
2018-08-20T07:23:45.252Z,6.70
2018-08-20T07:28:49.287Z,6.95
2018-08-20T07:33:53.168Z,7.03
2018-08-20T07:38:57.883Z,8.45
2018-08-20T07:44:01.768Z,7.70
2018-08-20T07:49:09.829Z,6.90
2018-08-20T07:54:13.824Z,7.20
2018-08-20T07:59:17.657Z,6.92
2018-08-20T08:04:21.405Z,7.37
2018-08-20T08:09:25.699Z,7.80
2018-08-20T08:14:29.637Z,7.70
2018-08-20T08:19:34.200Z,6.90
2018-08-20T08:24:38.004Z,6.90
2018-08-20T08:29:42.199Z,7.42
2018-08-20T08:34:46.241Z,7.93
2018-08-20T08:39:50.024Z,7.40
2018-08-20T08:44:53.956Z,8.63
2018-08-20T08:49:58.188Z,6.90
2018-08-20T08:55:02.038Z,7.60
2018-08-20T09:00:09.407Z,8.20
2018-08-20T09:05:13.318Z,7.80
2018-08-20T09:10:17.408Z,8.78
2018-08-20T09:15:24.423Z,9.25
2018-08-20T09:26:07.157Z,10.08
2018-08-20T09:31:10.905Z,9.15
2018-08-20T09:36:14.518Z,9.00
2018-08-20T09:41:18.263Z,8.83
2018-08-20T09:46:22.089Z,8.35
2018-08-20T09:51:26.025Z,8.30
2018-08-20T09:56:30.148Z,8.53
2018-08-20T10:01:34.022Z,8.70
2018-08-20T10:06:37.948Z,8.70
2018-08-20T10:11:42.366Z,9.00
2018-08-20T10:16:53.670Z,8.00
2018-08-20T10:21:57.561Z,7.60
2018-08-20T10:27:01.462Z,9.60
2018-08-20T10:32:05.426Z,7.53
2018-08-20T10:37:09.175Z,8.53
2018-08-20T10:42:12.656Z,7.58
2018-08-20T10:47:16.274Z,7.42
2018-08-20T10:52:20.033Z,8.25
2018-08-20T10:57:23.963Z,6.37
2018-08-20T11:02:27.690Z,8.70
2018-08-20T11:07:31.416Z,8.35
2018-08-20T11:12:35.338Z,6.47
2018-08-20T11:17:39.057Z,6.47
2018-08-20T11:22:43.510Z,6.00
2018-08-20T11:27:47.440Z,6.97
2018-08-20T11:32:51.042Z,5.72
2018-08-20T11:37:57.532Z,5.95
2018-08-20T11:43:02.008Z,6.35
2018-08-20T11:48:06.012Z,6.10
2018-08-20T11:53:11.690Z,5.80
2018-08-20T11:58:16.034Z,6.75
2018-08-20T12:03:20.027Z,8.23
2018-08-20T12:08:24.031Z,7.58
2018-08-20T12:13:27.716Z,7.87
2018-08-20T12:18:31.334Z,10.70
2018-08-20T12:23:39.872Z,8.05
2018-08-20T12:29:06.168Z,7.10
2018-08-20T12:34:09.953Z,7.40
2018-08-20T12:39:15.140Z,5.40
2018-08-20T12:44:19.982Z,7.33
2018-08-20T12:49:31.474Z,6.50
2018-08-20T12:54:36.198Z,5.17
2018-08-20T12:59:40.559Z,4.65
2018-08-20T13:10:03.500Z,4.78
2018-08-20T13:15:06.846Z,4.60
2018-08-20T13:20:10.367Z,6.10
2018-08-20T13:25:13.835Z,5.65
2018-08-20T13:30:17.181Z,4.17
2018-08-20T13:35:21.104Z,6.47
2018-08-20T13:40:24.411Z,5.62
2018-08-20T13:45:27.884Z,4.80
2018-08-20T13:50:32.836Z,4.22
2018-08-20T13:55:41.528Z,5.90
2018-08-20T14:00:45.063Z,4.10
2018-08-20T14:05:48.432Z,4.70
2018-08-20T14:10:52.088Z,10.60
2018-08-20T14:15:55.520Z,4.00
2018-08-20T14:21:07.244Z,5.62
2018-08-20T14:26:10.707Z,4.25
2018-08-20T14:31:14.141Z,4.40
2018-08-20T14:36:17.625Z,4.10
2018-08-20T14:41:21.029Z,3.97
2018-08-20T14:46:24.535Z,4.30
2018-08-20T14:51:33.456Z,5.35
2018-08-20T14:56:40.882Z,4.30
2018-08-20T15:01:47.681Z,3.70
2018-08-20T15:07:05.562Z,4.20
2018-08-20T15:12:09.185Z,3.45
2018-08-20T15:17:12.602Z,3.87
2018-08-20T15:22:16.100Z,3.85
2018-08-20T15:27:19.649Z,3.95
2018-08-20T15:32:23.246Z,3.90
2018-08-20T15:37:27.203Z,3.45
2018-08-20T15:47:57.313Z,3.40
2018-08-20T15:53:04.661Z,3.20
2018-08-20T15:58:07.913Z,3.30
2018-08-20T16:03:13.163Z,3.30
2018-08-20T16:08:16.481Z,3.70
2018-08-20T16:13:19.837Z,3.50
2018-08-20T16:18:23.102Z,3.47
2018-08-20T16:23:27.656Z,3.30
2018-08-20T16:28:30.902Z,5.83
2018-08-20T16:33:34.200Z,3.60
2018-08-20T16:38:37.615Z,3.60
2018-08-20T16:43:41.183Z,3.98
2018-08-20T16:48:44.698Z,3.90
2018-08-20T16:53:48.418Z,3.63
2018-08-20T16:58:51.780Z,4.40
2018-08-20T17:03:55.241Z,4.30
2018-08-20T17:08:58.674Z,4.30
2018-08-20T17:14:02.231Z,4.25
2018-08-20T17:19:05.979Z,4.17
2018-08-20T17:24:09.984Z,5.08
2018-08-20T17:29:14.664Z,3.60
2018-08-20T17:34:18.045Z,3.55
2018-08-20T17:39:21.932Z,3.50
2018-08-20T17:44:25.275Z,4.50
2018-08-20T17:49:30.498Z,3.77
2018-08-20T17:54:33.818Z,4.30
2018-08-20T17:59:41.524Z,4.63
2018-08-20T18:04:44.981Z,4.40
2018-08-20T18:09:49.326Z,6.75
2018-08-20T18:14:57.013Z,4.70
2018-08-20T18:20:01.316Z,4.30
2018-08-20T18:25:05.246Z,4.30
2018-08-20T18:30:08.725Z,4.90
2018-08-20T18:35:12.469Z,3.90
2018-08-20T18:40:18.326Z,3.58
2018-08-20T18:45:21.707Z,3.60
2018-08-20T18:50:25.330Z,3.40
2018-08-20T18:55:28.744Z,3.10
2018-08-20T19:00:32.137Z,3.90
2018-08-20T19:05:53.076Z,6.50
2018-08-20T19:10:56.852Z,4.28
2018-08-20T19:16:00.382Z,11.85
2018-08-20T19:21:06.418Z,7.55
2018-08-20T19:26:09.951Z,6.30
2018-08-20T19:31:13.257Z,9.07
2018-08-20T19:36:16.868Z,9.40
2018-08-20T19:41:20.431Z,6.75
2018-08-20T19:46:30.389Z,7.03
2018-08-20T19:51:34.977Z,6.83
2018-08-20T19:56:38.569Z,6.62
2018-08-20T20:01:41.973Z,7.30
2018-08-20T20:06:45.826Z,6.87
2018-08-20T20:11:50.658Z,6.90
2018-08-20T20:16:55.075Z,6.60
2018-08-20T20:21:58.597Z,6.20
2018-08-20T20:27:03.549Z,6.90
2018-08-20T20:32:07.762Z,8.07
2018-08-20T20:37:11.957Z,8.30
2018-08-20T20:42:16.014Z,8.10
2018-08-20T20:47:19.792Z,8.20
2018-08-20T20:52:23.341Z,8.03
2018-08-20T20:57:27.036Z,7.80
2018-08-20T21:02:47.269Z,6.90
2018-08-20T21:07:50.776Z,7.50
2018-08-20T21:12:54.708Z,7.00
2018-08-20T21:18:00.361Z,6.70
2018-08-20T21:23:10.338Z,6.20
2018-08-20T21:28:13.894Z,6.17
2018-08-20T21:33:20.946Z,6.03
2018-08-20T21:38:41.927Z,5.40
2018-08-20T21:49:17.889Z,7.00
2018-08-20T22:05:26.510Z,6.00
2018-08-20T22:10:32.573Z,7.05
2018-08-20T22:15:36.206Z,5.90
2018-08-20T22:20:43.095Z,6.00
2018-08-20T22:31:17.689Z,5.33
2018-08-20T22:36:24.011Z,5.65
2018-08-20T22:47:03.033Z,5.00
2018-08-20T22:52:07.867Z,5.95
2018-08-20T22:57:11.415Z,5.78
2018-08-20T23:02:14.815Z,6.15
2018-08-20T23:07:18.341Z,5.40
2018-08-20T23:12:27.022Z,6.60
2018-08-20T23:17:30.484Z,6.20
2018-08-20T23:22:39.233Z,6.40
2018-08-20T23:27:42.644Z,6.87
2018-08-20T23:32:46.122Z,6.37
